sensor_id;sensor_type;location;lat;lon;timestamp;pressure;altitude;pressure_sealevel;temperature;humidity
68859;BME280;55864;49.238;8.092;2022-09-09T00:01:32;98994.78;;;16.30;78.33
68859;BME280;55864;49.238;8.092;2022-09-09T00:03:43;98984.00;;;16.52;77.37
68859;BME280;55864;49.238;8.092;2022-09-09T00:05:54;98976.88;;;16.32;78.39
68859;BME280;55864;49.238;8.092;2022-09-09T00:07:59;98974.47;;;16.37;78.86
68859;BME280;55864;49.238;8.092;2022-09-09T00:10:17;98974.59;;;16.29;78.30
68859;BME280;55864;49.238;8.092;2022-09-09T00:12:27;98971.69;;;16.45;79.42
68859;BME280;55864;49.238;8.092;2022-09-09T00:14:39;98964.94;;;16.42;78.92
68859;BME280;55864;49.238;8.092;2022-09-09T00:16:48;98962.66;;;16.39;79.38
68859;BME280;55864;49.238;8.092;2022-09-09T00:18:56;98961.22;;;16.37;79.79
68859;BME280;55864;49.238;8.092;2022-09-09T00:21:06;98952.44;;;16.36;79.75
68859;BME280;55864;49.238;8.092;2022-09-09T00:23:12;98953.09;;;16.38;79.61
68859;BME280;55864;49.238;8.092;2022-09-09T00:25:19;98953.09;;;16.38;78.93
68859;BME280;55864;49.238;8.092;2022-09-09T00:27:26;98942.66;;;16.37;79.55
68859;BME280;55864;49.238;8.092;2022-09-09T00:29:36;98952.00;;;16.33;79.81
68859;BME280;55864;49.238;8.092;2022-09-09T00:31:41;98954.91;;;16.38;79.79
68859;BME280;55864;49.238;8.092;2022-09-09T00:33:42;98962.66;;;16.39;78.84
68859;BME280;55864;49.238;8.092;2022-09-09T00:35:46;98962.22;;;16.36;79.32
68859;BME280;55864;49.238;8.092;2022-09-09T00:37:51;98958.59;;;16.37;78.70
68859;BME280;55864;49.238;8.092;2022-09-09T00:39:55;98962.97;;;16.30;79.00
68859;BME280;55864;49.238;8.092;2022-09-09T00:42:06;98962.09;;;16.44;77.63
68859;BME280;55864;49.238;8.092;2022-09-09T00:44:22;98965.28;;;16.33;78.19
68859;BME280;55864;49.238;8.092;2022-09-09T00:46:54;98976.88;;;16.32;77.49
68859;BME280;55864;49.238;8.092;2022-09-09T00:49:02;98973.84;;;16.35;77.16
68859;BME280;55864;49.238;8.092;2022-09-09T00:51:08;98984.50;;;16.20;78.00
68859;BME280;55864;49.238;8.092;2022-09-09T00:53:24;98984.31;;;16.00;78.65
68859;BME280;55864;49.238;8.092;2022-09-09T00:55:35;98986.78;;;16.02;78.85
68859;BME280;55864;49.238;8.092;2022-09-09T00:57:39;98973.53;;;16.02;78.74
68859;BME280;55864;49.238;8.092;2022-09-09T00:59:46;98985.91;;;15.95;78.93
68859;BME280;55864;49.238;8.092;2022-09-09T01:01:47;98981.09;;;16.05;78.54
68859;BME280;55864;49.238;8.092;2022-09-09T01:03:52;98989.63;;;16.00;78.73
68859;BME280;55864;49.238;8.092;2022-09-09T01:06:02;98979.81;;;15.80;79.82
68859;BME280;55864;49.238;8.092;2022-09-09T01:08:12;98975.31;;;15.80;79.75
68859;BME280;55864;49.238;8.092;2022-09-09T01:10:26;98974.88;;;15.91;79.25
68859;BME280;55864;49.238;8.092;2022-09-09T01:12:37;98975.97;;;15.82;79.58
68859;BME280;55864;49.238;8.092;2022-09-09T01:14:43;98973.69;;;15.79;80.06
68859;BME280;55864;49.238;8.092;2022-09-09T01:16:46;98975.53;;;15.79;79.76
68859;BME280;55864;49.238;8.092;2022-09-09T01:18:51;98969.78;;;15.75;79.82
68859;BME280;55864;49.238;8.092;2022-09-09T01:21:02;98979.19;;;15.78;80.00
68859;BME280;55864;49.238;8.092;2022-09-09T01:23:20;98975.81;;;15.69;80.41
68859;BME280;55864;49.238;8.092;2022-09-09T01:26:10;98979.88;;;15.86;80.05
68859;BME280;55864;49.238;8.092;2022-09-09T01:28:16;98980.47;;;15.67;80.88
68859;BME280;55864;49.238;8.092;2022-09-09T01:30:20;98980.81;;;15.79;79.99
68859;BME280;55864;49.238;8.092;2022-09-09T01:32:40;98975.91;;;15.76;80.46
68859;BME280;55864;49.238;8.092;2022-09-09T01:34:42;98980.38;;;15.75;80.24
68859;BME280;55864;49.238;8.092;2022-09-09T01:36:45;98981.97;;;15.55;81.35
68859;BME280;55864;49.238;8.092;2022-09-09T01:38:46;98982.78;;;15.70;80.61
68859;BME280;55864;49.238;8.092;2022-09-09T01:40:47;98981.41;;;15.60;80.89
68859;BME280;55864;49.238;8.092;2022-09-09T01:42:50;98978.41;;;15.48;81.06
68859;BME280;55864;49.238;8.092;2022-09-09T01:44:51;98972.75;;;15.51;80.90
68859;BME280;55864;49.238;8.092;2022-09-09T01:46:52;98978.06;;;15.51;80.77
68859;BME280;55864;49.238;8.092;2022-09-09T01:48:56;98977.31;;;15.43;81.53
68859;BME280;55864;49.238;8.092;2022-09-09T01:50:57;98972.75;;;15.51;80.94
68859;BME280;55864;49.238;8.092;2022-09-09T01:52:59;98975.03;;;15.54;81.04
68859;BME280;55864;49.238;8.092;2022-09-09T01:55:03;98975.13;;;15.46;80.40
68859;BME280;55864;49.238;8.092;2022-09-09T01:57:15;98969.94;;;15.53;80.48
68859;BME280;55864;49.238;8.092;2022-09-09T01:59:34;98963.50;;;15.62;80.61
68859;BME280;55864;49.238;8.092;2022-09-09T02:01:49;98961.94;;;15.67;79.71
68859;BME280;55864;49.238;8.092;2022-09-09T02:03:57;98956.28;;;15.70;79.85
68859;BME280;55864;49.238;8.092;2022-09-09T02:06:05;98957.63;;;15.81;79.41
68859;BME280;55864;49.238;8.092;2022-09-09T02:08:14;98950.75;;;15.86;79.23
68859;BME280;55864;49.238;8.092;2022-09-09T02:10:31;98954.13;;;15.80;79.79
68859;BME280;55864;49.238;8.092;2022-09-09T02:12:49;98958.56;;;15.73;79.65
68859;BME280;55864;49.238;8.092;2022-09-09T02:14:56;98959.28;;;15.82;79.29
68859;BME280;55864;49.238;8.092;2022-09-09T02:17:10;98968.41;;;15.79;79.45
68859;BME280;55864;49.238;8.092;2022-09-09T02:19:46;98957.66;;;15.66;80.50
68859;BME280;55864;49.238;8.092;2022-09-09T02:21:59;98957.03;;;15.64;80.71
68859;BME280;55864;49.238;8.092;2022-09-09T02:24:03;98955.47;;;15.70;80.67
68859;BME280;55864;49.238;8.092;2022-09-09T02:26:08;98954.81;;;15.68;80.71
68859;BME280;55864;49.238;8.092;2022-09-09T02:28:11;98959.19;;;15.75;80.50
68859;BME280;55864;49.238;8.092;2022-09-09T02:30:16;98967.63;;;15.64;81.06
68859;BME280;55864;49.238;8.092;2022-09-09T02:32:24;98968.59;;;15.63;80.91
68859;BME280;55864;49.238;8.092;2022-09-09T02:34:27;98966.63;;;15.51;81.37
68859;BME280;55864;49.238;8.092;2022-09-09T02:36:29;98962.53;;;15.34;82.87
68859;BME280;55864;49.238;8.092;2022-09-09T02:38:34;98956.69;;;15.38;83.19
68859;BME280;55864;49.238;8.092;2022-09-09T02:40:42;98953.50;;;15.28;84.07
68859;BME280;55864;49.238;8.092;2022-09-09T02:42:45;98956.25;;;15.35;84.68
68859;BME280;55864;49.238;8.092;2022-09-09T02:44:46;98966.72;;;15.28;84.68
68859;BME280;55864;49.238;8.092;2022-09-09T02:47:15;98966.75;;;15.14;84.28
68859;BME280;55864;49.238;8.092;2022-09-09T02:49:24;98962.53;;;14.90;84.99
68859;BME280;55864;49.238;8.092;2022-09-09T02:51:35;98959.53;;;15.07;84.53
68859;BME280;55864;49.238;8.092;2022-09-09T02:53:44;98965.66;;;15.08;83.55
68859;BME280;55864;49.238;8.092;2022-09-09T02:55:51;98952.53;;;14.85;84.78
68859;BME280;55864;49.238;8.092;2022-09-09T02:57:56;98949.88;;;15.00;84.23
68859;BME280;55864;49.238;8.092;2022-09-09T03:00:00;98954.06;;;14.94;85.18
68859;BME280;55864;49.238;8.092;2022-09-09T03:02:03;98967.53;;;15.14;83.96
68859;BME280;55864;49.238;8.092;2022-09-09T03:04:04;98973.84;;;14.84;85.86
68859;BME280;55864;49.238;8.092;2022-09-09T03:06:04;98968.13;;;14.95;85.64
68859;BME280;55864;49.238;8.092;2022-09-09T03:08:05;98966.09;;;14.82;87.04
68859;BME280;55864;49.238;8.092;2022-09-09T03:10:06;98968.66;;;14.90;87.36
68859;BME280;55864;49.238;8.092;2022-09-09T03:12:07;98962.81;;;14.95;87.17
68859;BME280;55864;49.238;8.092;2022-09-09T03:14:08;98976.41;;;14.92;87.39
68859;BME280;55864;49.238;8.092;2022-09-09T03:16:11;98972.91;;;14.77;88.71
68859;BME280;55864;49.238;8.092;2022-09-09T03:18:18;98969.81;;;14.88;88.33
68859;BME280;55864;49.238;8.092;2022-09-09T03:20:23;98974.59;;;14.78;89.08
68859;BME280;55864;49.238;8.092;2022-09-09T03:22:24;98973.41;;;14.95;88.76
68859;BME280;55864;49.238;8.092;2022-09-09T03:24:25;98971.38;;;14.97;88.32
68859;BME280;55864;49.238;8.092;2022-09-09T03:26:26;98973.22;;;14.96;88.54
68859;BME280;55864;49.238;8.092;2022-09-09T03:28:26;98970.56;;;14.96;88.77
68859;BME280;55864;49.238;8.092;2022-09-09T03:30:30;98976.59;;;15.05;88.23
68859;BME280;55864;49.238;8.092;2022-09-09T03:32:32;98982.59;;;14.99;88.90
68859;BME280;55864;49.238;8.092;2022-09-09T03:34:33;98975.41;;;15.07;88.31
68859;BME280;55864;49.238;8.092;2022-09-09T03:38:50;98969.47;;;14.91;88.89
68859;BME280;55864;49.238;8.092;2022-09-09T03:40:52;98974.13;;;14.89;89.13
68859;BME280;55864;49.238;8.092;2022-09-09T03:42:53;98971.94;;;14.92;88.64
68859;BME280;55864;49.238;8.092;2022-09-09T03:44:53;98965.63;;;14.79;89.95
68859;BME280;55864;49.238;8.092;2022-09-09T03:46:57;98967.91;;;14.82;89.49
68859;BME280;55864;49.238;8.092;2022-09-09T03:48:58;98973.75;;;14.77;89.43
68859;BME280;55864;49.238;8.092;2022-09-09T03:51:00;98980.13;;;14.68;90.50
68859;BME280;55864;49.238;8.092;2022-09-09T03:53:00;98987.69;;;14.71;90.34
68859;BME280;55864;49.238;8.092;2022-09-09T03:55:01;98980.59;;;14.72;90.86
68859;BME280;55864;49.238;8.092;2022-09-09T03:57:01;98980.41;;;14.73;90.48
68859;BME280;55864;49.238;8.092;2022-09-09T03:59:02;98977.13;;;14.86;90.44
68859;BME280;55864;49.238;8.092;2022-09-09T04:01:04;98970.53;;;14.82;89.80
68859;BME280;55864;49.238;8.092;2022-09-09T04:03:05;98980.31;;;14.81;89.96
68859;BME280;55864;49.238;8.092;2022-09-09T04:05:06;98985.69;;;14.88;89.94
68859;BME280;55864;49.238;8.092;2022-09-09T04:07:09;98971.19;;;14.84;90.07
68859;BME280;55864;49.238;8.092;2022-09-09T04:09:09;98979.16;;;14.98;89.44
68859;BME280;55864;49.238;8.092;2022-09-09T04:11:11;98977.78;;;15.02;88.70
68859;BME280;55864;49.238;8.092;2022-09-09T04:13:13;98974.31;;;15.02;88.94
68859;BME280;55864;49.238;8.092;2022-09-09T04:15:14;98980.44;;;15.02;88.88
68859;BME280;55864;49.238;8.092;2022-09-09T04:17:14;98984.19;;;15.08;88.02
68859;BME280;55864;49.238;8.092;2022-09-09T04:19:15;98980.31;;;14.96;88.84
68859;BME280;55864;49.238;8.092;2022-09-09T04:21:17;98989.44;;;14.93;89.04
68859;BME280;55864;49.238;8.092;2022-09-09T04:23:19;98986.81;;;15.08;88.88
68859;BME280;55864;49.238;8.092;2022-09-09T04:25:20;98988.63;;;15.07;88.33
68859;BME280;55864;49.238;8.092;2022-09-09T04:27:21;98989.28;;;15.09;88.00
68859;BME280;55864;49.238;8.092;2022-09-09T04:29:21;98992.19;;;15.15;87.41
68859;BME280;55864;49.238;8.092;2022-09-09T04:31:22;98984.25;;;15.15;87.41
68859;BME280;55864;49.238;8.092;2022-09-09T04:33:25;98984.06;;;15.16;87.20
68859;BME280;55864;49.238;8.092;2022-09-09T04:35:25;98990.34;;;15.30;86.62
68859;BME280;55864;49.238;8.092;2022-09-09T04:37:26;98978.44;;;15.19;87.36
68859;BME280;55864;49.238;8.092;2022-09-09T04:39:28;98981.72;;;15.21;86.44
68859;BME280;55864;49.238;8.092;2022-09-09T04:41:28;98987.72;;;15.15;87.09
68859;BME280;55864;49.238;8.092;2022-09-09T04:43:29;98989.16;;;15.03;87.22
68859;BME280;55864;49.238;8.092;2022-09-09T04:45:30;98986.53;;;14.88;88.61
68859;BME280;55864;49.238;8.092;2022-09-09T04:47:31;98995.75;;;14.92;88.96
68859;BME280;55864;49.238;8.092;2022-09-09T04:49:31;98999.84;;;14.95;88.34
68859;BME280;55864;49.238;8.092;2022-09-09T04:51:32;98997.56;;;15.06;87.58
68859;BME280;55864;49.238;8.092;2022-09-09T04:53:33;99000.38;;;14.90;88.43
68859;BME280;55864;49.238;8.092;2022-09-09T04:55:35;98995.56;;;14.94;88.57
68859;BME280;55864;49.238;8.092;2022-09-09T04:57:36;98996.19;;;14.96;88.21
68859;BME280;55864;49.238;8.092;2022-09-09T04:59:37;99001.03;;;15.07;87.63
68859;BME280;55864;49.238;8.092;2022-09-09T05:01:38;98994.38;;;15.11;87.94
68859;BME280;55864;49.238;8.092;2022-09-09T05:03:39;99001.50;;;14.96;88.63
68859;BME280;55864;49.238;8.092;2022-09-09T05:05:42;99005.31;;;14.93;88.52
68859;BME280;55864;49.238;8.092;2022-09-09T05:07:43;99002.31;;;15.11;87.91
68859;BME280;55864;49.238;8.092;2022-09-09T05:09:43;99009.44;;;15.10;87.70
68859;BME280;55864;49.238;8.092;2022-09-09T05:11:45;98996.13;;;15.04;87.69
68859;BME280;55864;49.238;8.092;2022-09-09T05:14:00;98999.69;;;15.11;87.91
68859;BME280;55864;49.238;8.092;2022-09-09T05:16:03;99006.41;;;14.99;87.94
68859;BME280;55864;49.238;8.092;2022-09-09T05:18:03;99006.78;;;15.10;87.57
68859;BME280;55864;49.238;8.092;2022-09-09T05:20:06;99002.97;;;14.98;87.75
68859;BME280;55864;49.238;8.092;2022-09-09T05:22:07;99005.88;;;15.03;87.63
68859;BME280;55864;49.238;8.092;2022-09-09T05:24:15;99004.59;;;14.99;87.44
68859;BME280;55864;49.238;8.092;2022-09-09T05:26:18;99009.03;;;14.99;87.48
68859;BME280;55864;49.238;8.092;2022-09-09T05:28:23;99008.59;;;14.95;87.56
68859;BME280;55864;49.238;8.092;2022-09-09T05:30:24;99018.25;;;14.88;88.07
68859;BME280;55864;49.238;8.092;2022-09-09T05:32:26;99020.00;;;14.96;87.83
68859;BME280;55864;49.238;8.092;2022-09-09T05:34:26;99024.84;;;14.92;87.67
68859;BME280;55864;49.238;8.092;2022-09-09T05:36:27;99026.84;;;14.90;87.70
68859;BME280;55864;49.238;8.092;2022-09-09T05:38:30;99025.09;;;14.97;87.79
68859;BME280;55864;49.238;8.092;2022-09-09T05:40:31;99037.41;;;14.90;88.53
68859;BME280;55864;49.238;8.092;2022-09-09T05:42:32;99026.91;;;14.97;88.07
68859;BME280;55864;49.238;8.092;2022-09-09T05:44:34;99030.66;;;14.88;88.65
68859;BME280;55864;49.238;8.092;2022-09-09T05:46:35;99021.34;;;14.92;88.74
68859;BME280;55864;49.238;8.092;2022-09-09T05:48:37;99032.41;;;14.95;89.30
68859;BME280;55864;49.238;8.092;2022-09-09T05:50:38;99028.66;;;15.04;88.37
68859;BME280;55864;49.238;8.092;2022-09-09T05:52:39;99032.91;;;15.14;87.93
68859;BME280;55864;49.238;8.092;2022-09-09T05:54:40;99037.63;;;15.18;87.94
68859;BME280;55864;49.238;8.092;2022-09-09T05:56:42;99041.09;;;15.19;88.27
68859;BME280;55864;49.238;8.092;2022-09-09T05:58:44;99052.88;;;15.31;87.50
68859;BME280;55864;49.238;8.092;2022-09-09T06:00:47;99047.44;;;15.47;87.35
68859;BME280;55864;49.238;8.092;2022-09-09T06:02:50;99051.69;;;15.33;87.81
68859;BME280;55864;49.238;8.092;2022-09-09T06:04:51;99044.94;;;15.31;88.01
68859;BME280;55864;49.238;8.092;2022-09-09T06:06:52;99047.22;;;15.34;87.91
68859;BME280;55864;49.238;8.092;2022-09-09T06:08:56;99045.75;;;15.31;87.70
68859;BME280;55864;49.238;8.092;2022-09-09T06:11:01;99048.66;;;15.22;88.33
68859;BME280;55864;49.238;8.092;2022-09-09T06:13:03;99049.41;;;15.30;88.08
68859;BME280;55864;49.238;8.092;2022-09-09T06:15:04;99048.13;;;15.41;87.79
68859;BME280;55864;49.238;8.092;2022-09-09T06:17:07;99054.09;;;15.43;87.60
68859;BME280;55864;49.238;8.092;2022-09-09T06:19:07;99055.25;;;15.40;87.56
68859;BME280;55864;49.238;8.092;2022-09-09T06:21:11;99058.31;;;15.52;87.14
68859;BME280;55864;49.238;8.092;2022-09-09T06:23:15;99051.34;;;15.51;87.03
68859;BME280;55864;49.238;8.092;2022-09-09T06:25:15;99050.25;;;15.45;86.90
68859;BME280;55864;49.238;8.092;2022-09-09T06:27:16;99047.97;;;15.57;86.33
68859;BME280;55864;49.238;8.092;2022-09-09T06:29:16;99043.41;;;15.51;86.71
68859;BME280;55864;49.238;8.092;2022-09-09T06:31:19;99045.88;;;15.52;86.86
68859;BME280;55864;49.238;8.092;2022-09-09T06:33:21;99049.81;;;15.56;86.74
68859;BME280;55864;49.238;8.092;2022-09-09T06:35:22;99045.53;;;15.55;86.55
68859;BME280;55864;49.238;8.092;2022-09-09T06:37:22;99046.16;;;15.57;86.93
68859;BME280;55864;49.238;8.092;2022-09-09T06:39:24;99033.72;;;15.72;86.37
68859;BME280;55864;49.238;8.092;2022-09-09T06:41:26;99045.91;;;15.88;86.11
68859;BME280;55864;49.238;8.092;2022-09-09T06:43:28;99044.53;;;15.92;85.33
68859;BME280;55864;49.238;8.092;2022-09-09T06:45:29;99044.09;;;15.88;85.37
68859;BME280;55864;49.238;8.092;2022-09-09T06:47:32;99041.81;;;15.85;85.62
68859;BME280;55864;49.238;8.092;2022-09-09T06:49:34;99051.63;;;16.06;84.58
68859;BME280;55864;49.238;8.092;2022-09-09T06:51:38;99044.13;;;16.10;84.53
68859;BME280;55864;49.238;8.092;2022-09-09T06:53:40;99041.22;;;16.26;84.39
68859;BME280;55864;49.238;8.092;2022-09-09T06:55:41;99049.97;;;16.20;84.43
68859;BME280;55864;49.238;8.092;2022-09-09T06:57:42;99046.94;;;16.23;84.39
68859;BME280;55864;49.238;8.092;2022-09-09T06:59:48;99059.63;;;16.27;84.10
68859;BME280;55864;49.238;8.092;2022-09-09T07:01:49;99047.31;;;16.20;83.43
68859;BME280;55864;49.238;8.092;2022-09-09T07:03:51;99051.22;;;16.24;83.74
68859;BME280;55864;49.238;8.092;2022-09-09T07:05:56;99046.09;;;16.22;83.28
68859;BME280;55864;49.238;8.092;2022-09-09T07:07:58;99042.78;;;16.35;82.56
68859;BME280;55864;49.238;8.092;2022-09-09T07:09:58;99048.72;;;16.37;82.91
68859;BME280;55864;49.238;8.092;2022-09-09T07:11:59;99050.22;;;16.25;83.21
68859;BME280;55864;49.238;8.092;2022-09-09T07:14:01;99055.13;;;16.07;84.24
68859;BME280;55864;49.238;8.092;2022-09-09T07:16:04;99054.78;;;15.95;85.92
68859;BME280;55864;49.238;8.092;2022-09-09T07:18:04;99051.16;;;16.17;84.73
68859;BME280;55864;49.238;8.092;2022-09-09T07:20:06;99049.38;;;16.24;85.42
68859;BME280;55864;49.238;8.092;2022-09-09T07:22:08;99048.25;;;16.33;84.98
68859;BME280;55864;49.238;8.092;2022-09-09T07:24:10;99047.47;;;16.54;83.51
68859;BME280;55864;49.238;8.092;2022-09-09T07:26:13;99062.22;;;16.42;83.63
68859;BME280;55864;49.238;8.092;2022-09-09T07:28:14;99051.59;;;16.42;83.17
68859;BME280;55864;49.238;8.092;2022-09-09T07:30:15;99061.50;;;16.48;82.91
68859;BME280;55864;49.238;8.092;2022-09-09T07:32:16;99057.09;;;16.40;82.49
68859;BME280;55864;49.238;8.092;2022-09-09T07:34:17;99058.72;;;16.41;83.18
68859;BME280;55864;49.238;8.092;2022-09-09T07:36:20;99056.19;;;16.48;83.23
68859;BME280;55864;49.238;8.092;2022-09-09T07:38:22;99060.88;;;16.67;82.28
68859;BME280;55864;49.238;8.092;2022-09-09T07:40:23;99063.94;;;16.70;82.31
68859;BME280;55864;49.238;8.092;2022-09-09T07:42:24;99067.72;;;16.82;82.19
68859;BME280;55864;49.238;8.092;2022-09-09T07:44:25;99062.88;;;16.86;81.86
68859;BME280;55864;49.238;8.092;2022-09-09T07:46:33;99062.28;;;16.90;81.65
68859;BME280;55864;49.238;8.092;2022-09-09T07:48:35;99060.88;;;16.94;82.11
68859;BME280;55864;49.238;8.092;2022-09-09T07:50:36;99059.00;;;16.88;82.59
68859;BME280;55864;49.238;8.092;2022-09-09T07:52:36;99059.28;;;17.00;82.35
68859;BME280;55864;49.238;8.092;2022-09-09T07:54:41;99064.66;;;17.07;82.86
68859;BME280;55864;49.238;8.092;2022-09-09T07:56:41;99066.88;;;17.03;83.59
68859;BME280;55864;49.238;8.092;2022-09-09T07:58:44;99071.34;;;17.03;83.50
68859;BME280;55864;49.238;8.092;2022-09-09T08:00:45;99069.97;;;17.07;83.14
68859;BME280;55864;49.238;8.092;2022-09-09T08:02:46;99076.03;;;17.01;82.51
68859;BME280;55864;49.238;8.092;2022-09-09T08:04:47;99076.75;;;16.88;82.67
68859;BME280;55864;49.238;8.092;2022-09-09T08:06:51;99082.53;;;16.98;81.76
68859;BME280;55864;49.238;8.092;2022-09-09T08:08:53;99080.66;;;16.92;81.93
68859;BME280;55864;49.238;8.092;2022-09-09T08:11:03;99074.09;;;16.88;81.42
68859;BME280;55864;49.238;8.092;2022-09-09T08:13:04;99072.56;;;17.00;81.41
68859;BME280;55864;49.238;8.092;2022-09-09T08:15:06;99081.38;;;17.07;81.11
68859;BME280;55864;49.238;8.092;2022-09-09T08:17:08;99082.47;;;17.13;81.08
68859;BME280;55864;49.238;8.092;2022-09-09T08:19:08;99083.69;;;17.17;80.42
68859;BME280;55864;49.238;8.092;2022-09-09T08:21:12;99087.25;;;17.24;80.79
68859;BME280;55864;49.238;8.092;2022-09-09T08:23:13;99078.94;;;17.33;80.41
68859;BME280;55864;49.238;8.092;2022-09-09T08:25:14;99074.00;;;17.30;79.89
68859;BME280;55864;49.238;8.092;2022-09-09T08:27:16;99074.91;;;17.44;80.06
68859;BME280;55864;49.238;8.092;2022-09-09T08:29:17;99076.38;;;17.46;79.49
68859;BME280;55864;49.238;8.092;2022-09-09T08:31:22;99078.50;;;17.57;79.20
68859;BME280;55864;49.238;8.092;2022-09-09T08:33:23;99074.47;;;17.68;79.34
68859;BME280;55864;49.238;8.092;2022-09-09T08:35:23;99091.00;;;17.63;79.11
68859;BME280;55864;49.238;8.092;2022-09-09T08:37:24;99082.47;;;17.74;79.06
68859;BME280;55864;49.238;8.092;2022-09-09T08:39:25;99081.28;;;17.77;77.87
68859;BME280;55864;49.238;8.092;2022-09-09T08:41:38;99076.38;;;17.87;77.27
68859;BME280;55864;49.238;8.092;2022-09-09T08:43:43;99062.97;;;18.08;77.16
68859;BME280;55864;49.238;8.092;2022-09-09T08:45:50;99066.06;;;18.12;75.51
68859;BME280;55864;49.238;8.092;2022-09-09T08:48:11;99075.28;;;18.16;74.63
68859;BME280;55864;49.238;8.092;2022-09-09T08:50:20;99071.66;;;18.30;72.26
68859;BME280;55864;49.238;8.092;2022-09-09T08:52:23;99075.94;;;18.31;72.12
68859;BME280;55864;49.238;8.092;2022-09-09T08:54:34;99071.88;;;18.41;72.28
68859;BME280;55864;49.238;8.092;2022-09-09T08:56:35;99070.47;;;18.58;71.68
68859;BME280;55864;49.238;8.092;2022-09-09T08:58:45;99076.63;;;18.59;69.84
68859;BME280;55864;49.238;8.092;2022-09-09T09:01:00;99079.47;;;18.51;68.74
68859;BME280;55864;49.238;8.092;2022-09-09T09:03:07;99075.84;;;18.65;69.04
68859;BME280;55864;49.238;8.092;2022-09-09T09:05:19;99080.31;;;18.64;68.29
68859;BME280;55864;49.238;8.092;2022-09-09T09:07:31;99077.06;;;18.56;68.46
68859;BME280;55864;49.238;8.092;2022-09-09T09:09:44;99082.78;;;18.59;68.81
68859;BME280;55864;49.238;8.092;2022-09-09T09:11:49;99082.19;;;18.64;68.83
68859;BME280;55864;49.238;8.092;2022-09-09T09:13:55;99096.47;;;18.50;70.81
68859;BME280;55864;49.238;8.092;2022-09-09T09:16:00;99095.38;;;18.38;72.18
68859;BME280;55864;49.238;8.092;2022-09-09T09:18:03;99094.56;;;18.24;72.77
68859;BME280;55864;49.238;8.092;2022-09-09T09:20:10;99080.19;;;18.12;74.15
68859;BME280;55864;49.238;8.092;2022-09-09T09:22:17;99081.47;;;18.29;73.89
68859;BME280;55864;49.238;8.092;2022-09-09T09:24:20;99078.16;;;18.21;74.80
68859;BME280;55864;49.238;8.092;2022-09-09T09:26:28;99085.69;;;18.11;75.28
68859;BME280;55864;49.238;8.092;2022-09-09T09:28:32;99088.38;;;18.17;73.71
68859;BME280;55864;49.238;8.092;2022-09-09T09:30:44;99087.97;;;18.20;73.84
68859;BME280;55864;49.238;8.092;2022-09-09T09:32:52;99086.78;;;18.36;71.30
68859;BME280;55864;49.238;8.092;2022-09-09T09:34:55;99092.56;;;18.46;72.85
68859;BME280;55864;49.238;8.092;2022-09-09T09:36:58;99079.91;;;18.61;72.24
68859;BME280;55864;49.238;8.092;2022-09-09T09:39:03;99081.16;;;19.17;69.62
68859;BME280;55864;49.238;8.092;2022-09-09T09:41:06;99078.50;;;19.37;68.51
68859;BME280;55864;49.238;8.092;2022-09-09T09:43:19;99075.22;;;19.35;64.21
68859;BME280;55864;49.238;8.092;2022-09-09T09:45:28;99078.50;;;19.30;65.13
68859;BME280;55864;49.238;8.092;2022-09-09T09:47:31;99076.47;;;19.32;65.19
68859;BME280;55864;49.238;8.092;2022-09-09T09:49:52;99079.50;;;19.29;64.67
68859;BME280;55864;49.238;8.092;2022-09-09T09:51:53;99075.00;;;19.30;64.39
68859;BME280;55864;49.238;8.092;2022-09-09T09:54:17;99077.47;;;19.25;64.34
68859;BME280;55864;49.238;8.092;2022-09-09T09:56:27;99079.13;;;19.39;64.12
68859;BME280;55864;49.238;8.092;2022-09-09T09:58:30;99081.28;;;19.75;62.58
68859;BME280;55864;49.238;8.092;2022-09-09T10:00:32;99087.50;;;20.13;61.17
68859;BME280;55864;49.238;8.092;2022-09-09T10:02:42;99084.84;;;20.13;60.59
68859;BME280;55864;49.238;8.092;2022-09-09T10:04:44;99077.63;;;20.26;59.97
68859;BME280;55864;49.238;8.092;2022-09-09T10:06:45;99078.28;;;20.15;60.05
68859;BME280;55864;49.238;8.092;2022-09-09T10:08:46;99080.75;;;20.10;58.83
68859;BME280;55864;49.238;8.092;2022-09-09T10:10:53;99079.91;;;20.23;59.50
68859;BME280;55864;49.238;8.092;2022-09-09T10:13:01;99083.19;;;20.25;59.08
68859;BME280;55864;49.238;8.092;2022-09-09T10:15:15;99069.03;;;20.18;60.01
68859;BME280;55864;49.238;8.092;2022-09-09T10:17:26;99086.06;;;20.17;59.24
68859;BME280;55864;49.238;8.092;2022-09-09T10:19:32;99072.56;;;20.05;58.59
68859;BME280;55864;49.238;8.092;2022-09-09T10:21:55;99070.69;;;20.12;59.08
68859;BME280;55864;49.238;8.092;2022-09-09T10:26:32;99066.78;;;21.08;56.96
68859;BME280;55864;49.238;8.092;2022-09-09T10:28:51;99064.72;;;21.10;56.55
68859;BME280;55864;49.238;8.092;2022-09-09T10:31:01;99067.03;;;21.07;56.49
68859;BME280;55864;49.238;8.092;2022-09-09T10:33:09;99068.59;;;21.14;55.52
68859;BME280;55864;49.238;8.092;2022-09-09T10:35:21;99059.81;;;21.50;53.87
68859;BME280;55864;49.238;8.092;2022-09-09T10:37:37;99059.91;;;21.43;54.65
68859;BME280;55864;49.238;8.092;2022-09-09T10:39:41;99051.97;;;21.12;55.07
68859;BME280;55864;49.238;8.092;2022-09-09T10:41:48;99057.03;;;20.96;55.41
68859;BME280;55864;49.238;8.092;2022-09-09T10:44:09;99055.94;;;20.79;54.82
68859;BME280;55864;49.238;8.092;2022-09-09T10:46:15;99047.69;;;20.80;55.39
68859;BME280;55864;49.238;8.092;2022-09-09T10:48:36;99050.66;;;20.72;56.05
68859;BME280;55864;49.238;8.092;2022-09-09T10:50:50;99047.25;;;20.27;58.06
68859;BME280;55864;49.238;8.092;2022-09-09T10:53:00;99051.56;;;20.28;60.56
68859;BME280;55864;49.238;8.092;2022-09-09T10:55:09;99049.00;;;19.96;62.72
68859;BME280;55864;49.238;8.092;2022-09-09T10:57:13;99053.75;;;19.94;63.28
68859;BME280;55864;49.238;8.092;2022-09-09T10:59:19;99048.25;;;19.89;63.05
68859;BME280;55864;49.238;8.092;2022-09-09T11:01:22;99046.25;;;20.22;61.66
68859;BME280;55864;49.238;8.092;2022-09-09T11:03:26;99048.84;;;20.35;61.13
68859;BME280;55864;49.238;8.092;2022-09-09T11:05:31;99054.59;;;20.63;59.89
68859;BME280;55864;49.238;8.092;2022-09-09T11:07:43;99051.78;;;20.83;58.32